DXXX/LFW METAR and TAF weather

Enter ICAO airport designator
Station Type Date Time Source
DXXX METAR 2020/09/22 00:00 UTC NOAA

DXXX 220000Z 26006KT 9999 FEW010 25/23 Q1014 NOSIG


Station Type Date Time Source
DXXX Decoded METAR 2020/09/22 00:00 UTC NOAA

Lome, Togo (DXXX) 06-10N 001-15E 25M
Sep 21, 2020 - 08:00 PM EDT / 2020.09.22 0000 UTC
Wind: from the W (260 degrees) at 7 MPH (6 KT):0
Visibility: greater than 7 mile(s):0
Sky conditions: mostly clear
Temperature: 77 F (25 C)
Dew Point: 73 F (23 C)
Relative Humidity: 88%
Pressure (altimeter): 29.94 in. Hg (1014 hPa)
ob: DXXX 220000Z 26006KT 9999 FEW010 25/23 Q1014 NOSIG
cycle: 0

Station Type Date Time Source
DXXX TAF 2020/09/21 18:28 UTC NOAA

TAF DXXX 211700Z 2118/2224 20012KT 9999 SCT013
BECMG 2122/2124 26006KT
BECMG 2208/2210 20010KT PROB30
TEMPO 2216/2224 4000 TSRA BKN010 FEW020CB

Example: see airport list